sensor_id;sensor_type;location;lat;lon;timestamp;P1;durP1;ratioP1;P2;durP2;ratioP2
42200;SDS011;27869;51.442;7.540;2023-07-09T00:02:12;10.35;;;3.15;;
42200;SDS011;27869;51.442;7.540;2023-07-09T00:04:40;12.18;;;3.03;;
42200;SDS011;27869;51.442;7.540;2023-07-09T00:07:08;13.38;;;3.40;;
42200;SDS011;27869;51.442;7.540;2023-07-09T00:09:43;12.43;;;3.28;;
42200;SDS011;27869;51.442;7.540;2023-07-09T00:12:13;12.90;;;3.35;;
42200;SDS011;27869;51.442;7.540;2023-07-09T00:14:40;12.05;;;3.40;;
42200;SDS011;27869;51.442;7.540;2023-07-09T00:17:08;11.65;;;3.40;;
42200;SDS011;27869;51.442;7.540;2023-07-09T00:19:37;11.52;;;3.53;;
42200;SDS011;27869;51.442;7.540;2023-07-09T00:22:07;11.48;;;3.30;;
42200;SDS011;27869;51.442;7.540;2023-07-09T00:24:41;11.27;;;3.67;;
42200;SDS011;27869;51.442;7.540;2023-07-09T00:27:09;12.70;;;3.47;;
42200;SDS011;27869;51.442;7.540;2023-07-09T00:29:38;13.32;;;3.65;;
42200;SDS011;27869;51.442;7.540;2023-07-09T00:32:10;12.98;;;3.65;;
42200;SDS011;27869;51.442;7.540;2023-07-09T00:34:40;11.60;;;3.38;;
42200;SDS011;27869;51.442;7.540;2023-07-09T00:37:10;12.75;;;3.72;;
42200;SDS011;27869;51.442;7.540;2023-07-09T00:39:38;10.52;;;3.13;;
42200;SDS011;27869;51.442;7.540;2023-07-09T00:42:09;11.75;;;3.53;;
42200;SDS011;27869;51.442;7.540;2023-07-09T00:44:41;11.98;;;3.78;;
42200;SDS011;27869;51.442;7.540;2023-07-09T00:47:12;17.33;;;3.85;;
42200;SDS011;27869;51.442;7.540;2023-07-09T00:49:59;10.93;;;3.50;;
42200;SDS011;27869;51.442;7.540;2023-07-09T00:52:32;12.18;;;3.60;;
42200;SDS011;27869;51.442;7.540;2023-07-09T00:55:04;11.38;;;3.13;;
42200;SDS011;27869;51.442;7.540;2023-07-09T00:57:35;10.93;;;3.00;;
42200;SDS011;27869;51.442;7.540;2023-07-09T01:00:09;11.30;;;3.15;;
42200;SDS011;27869;51.442;7.540;2023-07-09T01:02:39;11.88;;;3.70;;
42200;SDS011;27869;51.442;7.540;2023-07-09T01:05:10;10.07;;;3.33;;
42200;SDS011;27869;51.442;7.540;2023-07-09T01:12:33;13.40;;;3.33;;
42200;SDS011;27869;51.442;7.540;2023-07-09T01:15:00;13.13;;;3.80;;
42200;SDS011;27869;51.442;7.540;2023-07-09T01:17:28;12.80;;;3.58;;
42200;SDS011;27869;51.442;7.540;2023-07-09T01:19:55;12.68;;;3.63;;
42200;SDS011;27869;51.442;7.540;2023-07-09T01:22:24;11.57;;;3.72;;
42200;SDS011;27869;51.442;7.540;2023-07-09T01:24:56;12.73;;;3.88;;
42200;SDS011;27869;51.442;7.540;2023-07-09T01:27:27;14.23;;;3.67;;
42200;SDS011;27869;51.442;7.540;2023-07-09T01:29:58;11.98;;;4.00;;
42200;SDS011;27869;51.442;7.540;2023-07-09T01:32:27;13.23;;;3.63;;
42200;SDS011;27869;51.442;7.540;2023-07-09T01:34:55;13.60;;;4.03;;
42200;SDS011;27869;51.442;7.540;2023-07-09T01:37:27;15.13;;;4.10;;
42200;SDS011;27869;51.442;7.540;2023-07-09T01:39:54;11.32;;;3.75;;
42200;SDS011;27869;51.442;7.540;2023-07-09T01:42:21;11.90;;;3.45;;
42200;SDS011;27869;51.442;7.540;2023-07-09T01:44:49;11.98;;;3.60;;
42200;SDS011;27869;51.442;7.540;2023-07-09T01:49:45;10.43;;;3.70;;
42200;SDS011;27869;51.442;7.540;2023-07-09T01:52:12;11.80;;;3.97;;
42200;SDS011;27869;51.442;7.540;2023-07-09T01:54:42;12.73;;;3.72;;
42200;SDS011;27869;51.442;7.540;2023-07-09T01:57:15;13.35;;;4.00;;
42200;SDS011;27869;51.442;7.540;2023-07-09T01:59:44;12.65;;;3.90;;
42200;SDS011;27869;51.442;7.540;2023-07-09T02:02:11;11.68;;;3.60;;
42200;SDS011;27869;51.442;7.540;2023-07-09T02:04:44;11.68;;;3.72;;
42200;SDS011;27869;51.442;7.540;2023-07-09T02:07:12;12.02;;;4.03;;
42200;SDS011;27869;51.442;7.540;2023-07-09T02:09:41;12.20;;;3.80;;
42200;SDS011;27869;51.442;7.540;2023-07-09T02:12:10;11.88;;;3.30;;
42200;SDS011;27869;51.442;7.540;2023-07-09T02:14:37;12.05;;;3.53;;
42200;SDS011;27869;51.442;7.540;2023-07-09T02:17:05;11.48;;;3.50;;
42200;SDS011;27869;51.442;7.540;2023-07-09T02:19:32;13.15;;;3.15;;
42200;SDS011;27869;51.442;7.540;2023-07-09T02:21:59;10.77;;;3.38;;
42200;SDS011;27869;51.442;7.540;2023-07-09T02:24:26;11.45;;;3.55;;
42200;SDS011;27869;51.442;7.540;2023-07-09T02:26:55;13.43;;;3.85;;
42200;SDS011;27869;51.442;7.540;2023-07-09T02:31:49;12.45;;;3.72;;
42200;SDS011;27869;51.442;7.540;2023-07-09T02:34:17;11.80;;;3.80;;
42200;SDS011;27869;51.442;7.540;2023-07-09T02:36:44;12.77;;;4.05;;
42200;SDS011;27869;51.442;7.540;2023-07-09T02:39:13;13.55;;;3.70;;
42200;SDS011;27869;51.442;7.540;2023-07-09T02:41:40;12.95;;;3.97;;
42200;SDS011;27869;51.442;7.540;2023-07-09T02:44:09;14.18;;;4.25;;
42200;SDS011;27869;51.442;7.540;2023-07-09T02:46:35;12.23;;;3.65;;
42200;SDS011;27869;51.442;7.540;2023-07-09T02:49:03;12.20;;;3.70;;
42200;SDS011;27869;51.442;7.540;2023-07-09T02:51:31;11.00;;;3.53;;
42200;SDS011;27869;51.442;7.540;2023-07-09T02:54:00;11.48;;;3.30;;
42200;SDS011;27869;51.442;7.540;2023-07-09T02:56:28;11.98;;;3.33;;
42200;SDS011;27869;51.442;7.540;2023-07-09T02:58:55;11.85;;;3.92;;
42200;SDS011;27869;51.442;7.540;2023-07-09T03:01:23;13.75;;;4.10;;
42200;SDS011;27869;51.442;7.540;2023-07-09T03:03:52;12.57;;;3.60;;
42200;SDS011;27869;51.442;7.540;2023-07-09T03:06:19;11.82;;;3.90;;
42200;SDS011;27869;51.442;7.540;2023-07-09T03:08:47;13.02;;;4.18;;
42200;SDS011;27869;51.442;7.540;2023-07-09T03:11:15;12.82;;;4.03;;
42200;SDS011;27869;51.442;7.540;2023-07-09T03:13:42;12.55;;;3.97;;
42200;SDS011;27869;51.442;7.540;2023-07-09T03:16:10;11.73;;;3.35;;
42200;SDS011;27869;51.442;7.540;2023-07-09T03:18:38;11.50;;;3.47;;
42200;SDS011;27869;51.442;7.540;2023-07-09T03:21:05;11.32;;;3.70;;
42200;SDS011;27869;51.442;7.540;2023-07-09T03:23:32;10.77;;;3.50;;
42200;SDS011;27869;51.442;7.540;2023-07-09T03:25:59;14.80;;;3.88;;
42200;SDS011;27869;51.442;7.540;2023-07-09T03:28:26;11.20;;;3.72;;
42200;SDS011;27869;51.442;7.540;2023-07-09T03:30:53;14.05;;;3.28;;
42200;SDS011;27869;51.442;7.540;2023-07-09T03:33:21;11.18;;;3.60;;
42200;SDS011;27869;51.442;7.540;2023-07-09T03:35:50;12.88;;;3.70;;
42200;SDS011;27869;51.442;7.540;2023-07-09T03:38:18;13.27;;;4.22;;
42200;SDS011;27869;51.442;7.540;2023-07-09T03:40:45;11.10;;;3.70;;
42200;SDS011;27869;51.442;7.540;2023-07-09T03:43:11;11.27;;;3.85;;
42200;SDS011;27869;51.442;7.540;2023-07-09T03:45:38;13.55;;;3.90;;
42200;SDS011;27869;51.442;7.540;2023-07-09T03:48:05;10.32;;;3.05;;
42200;SDS011;27869;51.442;7.540;2023-07-09T03:50:32;11.52;;;4.05;;
42200;SDS011;27869;51.442;7.540;2023-07-09T03:53:00;10.60;;;3.38;;
42200;SDS011;27869;51.442;7.540;2023-07-09T03:55:27;13.13;;;4.18;;
42200;SDS011;27869;51.442;7.540;2023-07-09T03:57:54;11.40;;;3.58;;
42200;SDS011;27869;51.442;7.540;2023-07-09T04:00:22;13.90;;;3.70;;
42200;SDS011;27869;51.442;7.540;2023-07-09T04:02:49;13.52;;;4.32;;
42200;SDS011;27869;51.442;7.540;2023-07-09T04:05:17;11.88;;;3.55;;
42200;SDS011;27869;51.442;7.540;2023-07-09T04:07:44;13.02;;;4.00;;
42200;SDS011;27869;51.442;7.540;2023-07-09T04:10:13;12.15;;;3.78;;
42200;SDS011;27869;51.442;7.540;2023-07-09T04:12:40;14.23;;;4.30;;
42200;SDS011;27869;51.442;7.540;2023-07-09T04:15:07;12.90;;;4.10;;
42200;SDS011;27869;51.442;7.540;2023-07-09T04:17:34;13.40;;;3.53;;
42200;SDS011;27869;51.442;7.540;2023-07-09T04:20:02;12.93;;;4.10;;
42200;SDS011;27869;51.442;7.540;2023-07-09T04:22:32;11.75;;;3.90;;
42200;SDS011;27869;51.442;7.540;2023-07-09T04:25:00;12.23;;;4.22;;
42200;SDS011;27869;51.442;7.540;2023-07-09T04:27:29;13.10;;;3.72;;
42200;SDS011;27869;51.442;7.540;2023-07-09T04:29:56;12.35;;;4.10;;
42200;SDS011;27869;51.442;7.540;2023-07-09T04:32:23;12.40;;;4.38;;
42200;SDS011;27869;51.442;7.540;2023-07-09T04:34:50;10.82;;;3.38;;
42200;SDS011;27869;51.442;7.540;2023-07-09T04:37:17;11.85;;;3.58;;
42200;SDS011;27869;51.442;7.540;2023-07-09T04:39:44;11.52;;;3.88;;
42200;SDS011;27869;51.442;7.540;2023-07-09T04:42:13;13.85;;;4.43;;
42200;SDS011;27869;51.442;7.540;2023-07-09T04:44:42;11.48;;;4.00;;
42200;SDS011;27869;51.442;7.540;2023-07-09T04:47:10;13.77;;;3.97;;
42200;SDS011;27869;51.442;7.540;2023-07-09T04:49:38;10.98;;;3.65;;
42200;SDS011;27869;51.442;7.540;2023-07-09T04:52:05;12.63;;;4.03;;
42200;SDS011;27869;51.442;7.540;2023-07-09T04:54:33;12.80;;;3.63;;
42200;SDS011;27869;51.442;7.540;2023-07-09T04:56:59;11.02;;;3.90;;
42200;SDS011;27869;51.442;7.540;2023-07-09T04:59:27;11.20;;;3.70;;
42200;SDS011;27869;51.442;7.540;2023-07-09T05:01:55;13.00;;;3.45;;
42200;SDS011;27869;51.442;7.540;2023-07-09T05:04:22;11.38;;;3.53;;
42200;SDS011;27869;51.442;7.540;2023-07-09T05:06:49;11.15;;;3.95;;
42200;SDS011;27869;51.442;7.540;2023-07-09T05:09:15;13.23;;;3.35;;
42200;SDS011;27869;51.442;7.540;2023-07-09T05:11:42;12.70;;;3.90;;
42200;SDS011;27869;51.442;7.540;2023-07-09T05:14:09;11.07;;;3.60;;
42200;SDS011;27869;51.442;7.540;2023-07-09T05:16:36;11.18;;;3.88;;
42200;SDS011;27869;51.442;7.540;2023-07-09T05:19:04;11.75;;;3.92;;
42200;SDS011;27869;51.442;7.540;2023-07-09T05:21:33;11.15;;;3.70;;
42200;SDS011;27869;51.442;7.540;2023-07-09T05:24:00;11.50;;;4.00;;
42200;SDS011;27869;51.442;7.540;2023-07-09T05:26:27;11.60;;;3.67;;
42200;SDS011;27869;51.442;7.540;2023-07-09T05:28:53;11.77;;;4.00;;
42200;SDS011;27869;51.442;7.540;2023-07-09T05:31:22;12.10;;;3.55;;
42200;SDS011;27869;51.442;7.540;2023-07-09T05:33:48;13.02;;;3.65;;
42200;SDS011;27869;51.442;7.540;2023-07-09T05:36:17;14.02;;;4.70;;
42200;SDS011;27869;51.442;7.540;2023-07-09T05:38:45;11.27;;;3.90;;
42200;SDS011;27869;51.442;7.540;2023-07-09T05:41:12;12.70;;;3.80;;
42200;SDS011;27869;51.442;7.540;2023-07-09T05:43:41;12.82;;;3.95;;
42200;SDS011;27869;51.442;7.540;2023-07-09T05:46:09;15.60;;;4.50;;
42200;SDS011;27869;51.442;7.540;2023-07-09T05:48:36;11.57;;;3.63;;
42200;SDS011;27869;51.442;7.540;2023-07-09T05:51:03;12.80;;;4.10;;
42200;SDS011;27869;51.442;7.540;2023-07-09T05:53:31;13.23;;;3.92;;
42200;SDS011;27869;51.442;7.540;2023-07-09T05:55:58;13.77;;;4.47;;
42200;SDS011;27869;51.442;7.540;2023-07-09T05:58:25;10.32;;;3.47;;
42200;SDS011;27869;51.442;7.540;2023-07-09T06:00:52;12.82;;;4.68;;
42200;SDS011;27869;51.442;7.540;2023-07-09T06:03:21;13.48;;;4.45;;
42200;SDS011;27869;51.442;7.540;2023-07-09T06:05:50;11.98;;;3.72;;
42200;SDS011;27869;51.442;7.540;2023-07-09T06:08:17;16.77;;;4.10;;
42200;SDS011;27869;51.442;7.540;2023-07-09T06:10:56;12.05;;;3.97;;
42200;SDS011;27869;51.442;7.540;2023-07-09T06:13:24;13.02;;;4.10;;
42200;SDS011;27869;51.442;7.540;2023-07-09T06:15:53;14.02;;;4.10;;
42200;SDS011;27869;51.442;7.540;2023-07-09T06:18:21;12.00;;;3.83;;
42200;SDS011;27869;51.442;7.540;2023-07-09T06:20:49;11.57;;;4.07;;
42200;SDS011;27869;51.442;7.540;2023-07-09T06:23:16;12.98;;;4.00;;
42200;SDS011;27869;51.442;7.540;2023-07-09T06:25:44;13.75;;;4.18;;
42200;SDS011;27869;51.442;7.540;2023-07-09T06:28:14;13.77;;;3.95;;
42200;SDS011;27869;51.442;7.540;2023-07-09T06:30:41;12.80;;;3.95;;
42200;SDS011;27869;51.442;7.540;2023-07-09T06:33:09;12.20;;;4.00;;
42200;SDS011;27869;51.442;7.540;2023-07-09T06:35:37;14.45;;;4.30;;
42200;SDS011;27869;51.442;7.540;2023-07-09T06:38:04;13.77;;;4.28;;
42200;SDS011;27869;51.442;7.540;2023-07-09T06:40:31;13.23;;;4.25;;
42200;SDS011;27869;51.442;7.540;2023-07-09T06:42:58;13.35;;;4.25;;
42200;SDS011;27869;51.442;7.540;2023-07-09T06:45:27;13.23;;;3.75;;
42200;SDS011;27869;51.442;7.540;2023-07-09T06:47:54;14.05;;;3.97;;
42200;SDS011;27869;51.442;7.540;2023-07-09T06:50:20;11.88;;;4.13;;
42200;SDS011;27869;51.442;7.540;2023-07-09T06:52:47;12.52;;;3.97;;
42200;SDS011;27869;51.442;7.540;2023-07-09T06:55:14;15.40;;;4.38;;
42200;SDS011;27869;51.442;7.540;2023-07-09T06:57:41;13.85;;;4.47;;
42200;SDS011;27869;51.442;7.540;2023-07-09T07:00:08;12.63;;;3.95;;
42200;SDS011;27869;51.442;7.540;2023-07-09T07:02:37;14.32;;;4.00;;
42200;SDS011;27869;51.442;7.540;2023-07-09T07:05:04;14.30;;;4.10;;
42200;SDS011;27869;51.442;7.540;2023-07-09T07:07:31;13.43;;;3.75;;
42200;SDS011;27869;51.442;7.540;2023-07-09T07:09:58;14.90;;;4.35;;
42200;SDS011;27869;51.442;7.540;2023-07-09T07:12:26;14.05;;;4.03;;
42200;SDS011;27869;51.442;7.540;2023-07-09T07:14:55;11.85;;;3.90;;
42200;SDS011;27869;51.442;7.540;2023-07-09T07:17:22;13.68;;;4.15;;
42200;SDS011;27869;51.442;7.540;2023-07-09T07:19:50;13.23;;;4.43;;
42200;SDS011;27869;51.442;7.540;2023-07-09T07:22:17;14.07;;;4.50;;
42200;SDS011;27869;51.442;7.540;2023-07-09T07:24:44;14.38;;;4.28;;
42200;SDS011;27869;51.442;7.540;2023-07-09T07:27:11;13.80;;;4.05;;
42200;SDS011;27869;51.442;7.540;2023-07-09T07:29:38;13.13;;;4.45;;
42200;SDS011;27869;51.442;7.540;2023-07-09T07:32:05;13.45;;;4.72;;
42200;SDS011;27869;51.442;7.540;2023-07-09T07:37:01;13.43;;;4.55;;
42200;SDS011;27869;51.442;7.540;2023-07-09T07:39:29;14.68;;;4.53;;
42200;SDS011;27869;51.442;7.540;2023-07-09T07:41:55;13.43;;;4.40;;
42200;SDS011;27869;51.442;7.540;2023-07-09T07:44:22;13.77;;;4.35;;
42200;SDS011;27869;51.442;7.540;2023-07-09T07:46:49;15.93;;;4.70;;
42200;SDS011;27869;51.442;7.540;2023-07-09T07:49:16;12.52;;;4.53;;
42200;SDS011;27869;51.442;7.540;2023-07-09T07:51:43;13.13;;;4.43;;
42200;SDS011;27869;51.442;7.540;2023-07-09T07:54:11;15.13;;;4.90;;
42200;SDS011;27869;51.442;7.540;2023-07-09T07:56:38;14.38;;;4.55;;
42200;SDS011;27869;51.442;7.540;2023-07-09T07:59:05;12.85;;;4.25;;
42200;SDS011;27869;51.442;7.540;2023-07-09T08:01:32;14.00;;;4.72;;
42200;SDS011;27869;51.442;7.540;2023-07-09T08:04:00;12.35;;;4.13;;
42200;SDS011;27869;51.442;7.540;2023-07-09T08:06:27;13.15;;;4.28;;
42200;SDS011;27869;51.442;7.540;2023-07-09T08:08:56;15.13;;;5.20;;
42200;SDS011;27869;51.442;7.540;2023-07-09T08:11:25;13.18;;;4.47;;
42200;SDS011;27869;51.442;7.540;2023-07-09T08:13:53;13.13;;;4.90;;
42200;SDS011;27869;51.442;7.540;2023-07-09T08:16:20;14.10;;;4.78;;
42200;SDS011;27869;51.442;7.540;2023-07-09T08:18:47;13.82;;;4.63;;
42200;SDS011;27869;51.442;7.540;2023-07-09T08:21:16;13.77;;;4.85;;
42200;SDS011;27869;51.442;7.540;2023-07-09T08:23:44;15.00;;;4.97;;
42200;SDS011;27869;51.442;7.540;2023-07-09T08:26:11;13.38;;;4.93;;
42200;SDS011;27869;51.442;7.540;2023-07-09T08:28:40;13.43;;;4.68;;
42200;SDS011;27869;51.442;7.540;2023-07-09T08:33:34;16.35;;;4.55;;
42200;SDS011;27869;51.442;7.540;2023-07-09T08:36:02;15.55;;;5.25;;
42200;SDS011;27869;51.442;7.540;2023-07-09T08:38:29;14.48;;;5.18;;
42200;SDS011;27869;51.442;7.540;2023-07-09T08:40:57;15.88;;;4.90;;
42200;SDS011;27869;51.442;7.540;2023-07-09T08:46:17;14.75;;;5.30;;
42200;SDS011;27869;51.442;7.540;2023-07-09T08:48:52;12.57;;;4.88;;
42200;SDS011;27869;51.442;7.540;2023-07-09T08:51:22;12.93;;;4.75;;
42200;SDS011;27869;51.442;7.540;2023-07-09T08:53:54;14.73;;;5.00;;
42200;SDS011;27869;51.442;7.540;2023-07-09T08:56:24;16.75;;;5.50;;
42200;SDS011;27869;51.442;7.540;2023-07-09T08:58:53;12.63;;;4.93;;
42200;SDS011;27869;51.442;7.540;2023-07-09T09:01:23;12.73;;;4.75;;
42200;SDS011;27869;51.442;7.540;2023-07-09T09:03:53;14.57;;;5.28;;
42200;SDS011;27869;51.442;7.540;2023-07-09T09:06:25;11.82;;;4.97;;
42200;SDS011;27869;51.442;7.540;2023-07-09T09:08:57;16.98;;;4.90;;
42200;SDS011;27869;51.442;7.540;2023-07-09T09:11:30;14.15;;;4.85;;
42200;SDS011;27869;51.442;7.540;2023-07-09T09:14:09;14.40;;;5.03;;
42200;SDS011;27869;51.442;7.540;2023-07-09T09:16:51;15.05;;;5.00;;
42200;SDS011;27869;51.442;7.540;2023-07-09T09:19:20;13.73;;;5.10;;
42200;SDS011;27869;51.442;7.540;2023-07-09T09:21:54;14.30;;;4.55;;
42200;SDS011;27869;51.442;7.540;2023-07-09T09:24:26;15.48;;;5.40;;
42200;SDS011;27869;51.442;7.540;2023-07-09T09:26:57;13.43;;;5.00;;
42200;SDS011;27869;51.442;7.540;2023-07-09T09:29:27;15.30;;;5.70;;
42200;SDS011;27869;51.442;7.540;2023-07-09T09:31:54;15.05;;;5.15;;
42200;SDS011;27869;51.442;7.540;2023-07-09T09:34:24;15.15;;;4.68;;
42200;SDS011;27869;51.442;7.540;2023-07-09T09:36:53;12.82;;;4.45;;
42200;SDS011;27869;51.442;7.540;2023-07-09T09:39:20;12.70;;;4.35;;
42200;SDS011;27869;51.442;7.540;2023-07-09T09:41:52;14.50;;;4.63;;
42200;SDS011;27869;51.442;7.540;2023-07-09T09:44:23;12.98;;;4.30;;
42200;SDS011;27869;51.442;7.540;2023-07-09T09:46:55;15.88;;;4.60;;
42200;SDS011;27869;51.442;7.540;2023-07-09T09:49:23;14.98;;;4.70;;
42200;SDS011;27869;51.442;7.540;2023-07-09T09:51:50;11.88;;;4.80;;
42200;SDS011;27869;51.442;7.540;2023-07-09T09:54:19;16.52;;;5.28;;
42200;SDS011;27869;51.442;7.540;2023-07-09T09:56:49;13.30;;;4.80;;
42200;SDS011;27869;51.442;7.540;2023-07-09T10:01:44;14.80;;;4.63;;
42200;SDS011;27869;51.442;7.540;2023-07-09T10:04:16;13.90;;;4.70;;
42200;SDS011;27869;51.442;7.540;2023-07-09T10:06:45;12.88;;;4.70;;
42200;SDS011;27869;51.442;7.540;2023-07-09T10:09:16;14.50;;;4.68;;
42200;SDS011;27869;51.442;7.540;2023-07-09T10:11:52;11.35;;;3.95;;
42200;SDS011;27869;51.442;7.540;2023-07-09T10:14:31;12.57;;;4.38;;
42200;SDS011;27869;51.442;7.540;2023-07-09T10:17:15;11.00;;;4.13;;
42200;SDS011;27869;51.442;7.540;2023-07-09T10:19:51;13.00;;;4.22;;
42200;SDS011;27869;51.442;7.540;2023-07-09T10:25:11;14.40;;;4.38;;
42200;SDS011;27869;51.442;7.540;2023-07-09T10:27:48;13.52;;;4.40;;
42200;SDS011;27869;51.442;7.540;2023-07-09T10:30:28;13.32;;;4.43;;
42200;SDS011;27869;51.442;7.540;2023-07-09T10:33:08;11.82;;;4.13;;
42200;SDS011;27869;51.442;7.540;2023-07-09T10:35:40;12.55;;;4.30;;
42200;SDS011;27869;51.442;7.540;2023-07-09T10:38:19;11.85;;;4.15;;
42200;SDS011;27869;51.442;7.540;2023-07-09T10:40:53;12.45;;;4.05;;
42200;SDS011;27869;51.442;7.540;2023-07-09T10:43:25;12.52;;;4.13;;
42200;SDS011;27869;51.442;7.540;2023-07-09T10:45:59;10.88;;;3.83;;
42200;SDS011;27869;51.442;7.540;2023-07-09T10:48:33;15.27;;;4.72;;
42200;SDS011;27869;51.442;7.540;2023-07-09T10:51:05;13.23;;;3.92;;
42200;SDS011;27869;51.442;7.540;2023-07-09T10:53:43;13.65;;;4.03;;
42200;SDS011;27869;51.442;7.540;2023-07-09T10:56:12;10.70;;;3.42;;
42200;SDS011;27869;51.442;7.540;2023-07-09T10:58:43;14.00;;;4.40;;
42200;SDS011;27869;51.442;7.540;2023-07-09T11:01:16;14.30;;;4.25;;
42200;SDS011;27869;51.442;7.540;2023-07-09T11:03:48;13.07;;;4.13;;
42200;SDS011;27869;51.442;7.540;2023-07-09T11:06:21;12.05;;;4.20;;
42200;SDS011;27869;51.442;7.540;2023-07-09T11:08:53;12.57;;;3.95;;
42200;SDS011;27869;51.442;7.540;2023-07-09T11:11:25;11.15;;;3.83;;
42200;SDS011;27869;51.442;7.540;2023-07-09T11:16:34;11.85;;;3.63;;
42200;SDS011;27869;51.442;7.540;2023-07-09T11:19:04;15.75;;;3.60;;
42200;SDS011;27869;51.442;7.540;2023-07-09T11:21:40;12.43;;;3.90;;
42200;SDS011;27869;51.442;7.540;2023-07-09T11:24:24;10.30;;;3.53;;
42200;SDS011;27869;51.442;7.540;2023-07-09T11:26:56;10.10;;;3.47;;
42200;SDS011;27869;51.442;7.540;2023-07-09T11:29:25;13.75;;;3.30;;
42200;SDS011;27869;51.442;7.540;2023-07-09T11:31:53;11.30;;;3.88;;
42200;SDS011;27869;51.442;7.540;2023-07-09T11:34:26;11.20;;;3.47;;
42200;SDS011;27869;51.442;7.540;2023-07-09T11:36:58;10.82;;;3.45;;
42200;SDS011;27869;51.442;7.540;2023-07-09T11:39:27;11.13;;;3.78;;
42200;SDS011;27869;51.442;7.540;2023-07-09T11:41:56;10.65;;;3.70;;
42200;SDS011;27869;51.442;7.540;2023-07-09T11:44:23;15.60;;;4.50;;
42200;SDS011;27869;51.442;7.540;2023-07-09T11:47:01;10.77;;;3.88;;
42200;SDS011;27869;51.442;7.540;2023-07-09T11:49:45;11.98;;;3.72;;
42200;SDS011;27869;51.442;7.540;2023-07-09T11:52:20;13.23;;;3.75;;
42200;SDS011;27869;51.442;7.540;2023-07-09T11:54:52;11.77;;;3.80;;
42200;SDS011;27869;51.442;7.540;2023-07-09T11:57:19;9.93;;;3.08;;
42200;SDS011;27869;51.442;7.540;2023-07-09T11:59:46;11.70;;;3.40;;
42200;SDS011;27869;51.442;7.540;2023-07-09T12:02:17;10.65;;;3.10;;
42200;SDS011;27869;51.442;7.540;2023-07-09T12:04:47;11.55;;;3.63;;
42200;SDS011;27869;51.442;7.540;2023-07-09T12:07:15;10.95;;;3.72;;
42200;SDS011;27869;51.442;7.540;2023-07-09T12:09:45;12.10;;;3.42;;
42200;SDS011;27869;51.442;7.540;2023-07-09T12:12:16;16.35;;;4.15;;
42200;SDS011;27869;51.442;7.540;2023-07-09T12:14:45;11.65;;;2.80;;
42200;SDS011;27869;51.442;7.540;2023-07-09T12:17:12;10.27;;;3.22;;
42200;SDS011;27869;51.442;7.540;2023-07-09T12:19:39;10.82;;;3.63;;
42200;SDS011;27869;51.442;7.540;2023-07-09T12:22:08;11.43;;;3.58;;
42200;SDS011;27869;51.442;7.540;2023-07-09T12:24:41;11.32;;;3.47;;
42200;SDS011;27869;51.442;7.540;2023-07-09T12:27:18;9.80;;;3.40;;
42200;SDS011;27869;51.442;7.540;2023-07-09T12:29:48;11.63;;;3.53;;
42200;SDS011;27869;51.442;7.540;2023-07-09T12:32:17;10.77;;;3.60;;
42200;SDS011;27869;51.442;7.540;2023-07-09T12:37:16;11.70;;;3.63;;
42200;SDS011;27869;51.442;7.540;2023-07-09T12:39:44;12.98;;;3.53;;
42200;SDS011;27869;51.442;7.540;2023-07-09T12:42:14;9.68;;;3.30;;
42200;SDS011;27869;51.442;7.540;2023-07-09T12:44:46;10.18;;;3.28;;
42200;SDS011;27869;51.442;7.540;2023-07-09T12:47:14;12.15;;;3.35;;
42200;SDS011;27869;51.442;7.540;2023-07-09T12:49:42;11.82;;;3.55;;
42200;SDS011;27869;51.442;7.540;2023-07-09T12:52:13;11.55;;;3.60;;
42200;SDS011;27869;51.442;7.540;2023-07-09T12:54:51;14.65;;;3.60;;
42200;SDS011;27869;51.442;7.540;2023-07-09T12:57:21;11.10;;;3.75;;
42200;SDS011;27869;51.442;7.540;2023-07-09T12:59:50;13.05;;;3.40;;
42200;SDS011;27869;51.442;7.540;2023-07-09T13:02:18;9.52;;;3.20;;
42200;SDS011;27869;51.442;7.540;2023-07-09T13:04:47;12.73;;;3.55;;
42200;SDS011;27869;51.442;7.540;2023-07-09T13:10:07;14.63;;;3.60;;
42200;SDS011;27869;51.442;7.540;2023-07-09T13:12:44;11.52;;;3.40;;
42200;SDS011;27869;51.442;7.540;2023-07-09T13:15:21;11.43;;;3.08;;
42200;SDS011;27869;51.442;7.540;2023-07-09T13:17:49;10.43;;;3.45;;
42200;SDS011;27869;51.442;7.540;2023-07-09T13:20:23;11.80;;;3.53;;
42200;SDS011;27869;51.442;7.540;2023-07-09T13:22:50;11.27;;;3.60;;
42200;SDS011;27869;51.442;7.540;2023-07-09T13:25:18;12.77;;;3.72;;
42200;SDS011;27869;51.442;7.540;2023-07-09T13:27:44;11.55;;;3.55;;
42200;SDS011;27869;51.442;7.540;2023-07-09T13:30:11;12.02;;;3.25;;
42200;SDS011;27869;51.442;7.540;2023-07-09T13:32:40;11.65;;;3.65;;
42200;SDS011;27869;51.442;7.540;2023-07-09T13:37:38;11.32;;;3.40;;
42200;SDS011;27869;51.442;7.540;2023-07-09T13:40:07;12.20;;;3.92;;
42200;SDS011;27869;51.442;7.540;2023-07-09T13:42:35;11.57;;;3.50;;
42200;SDS011;27869;51.442;7.540;2023-07-09T13:45:02;12.50;;;3.65;;
42200;SDS011;27869;51.442;7.540;2023-07-09T13:47:30;10.48;;;3.53;;
42200;SDS011;27869;51.442;7.540;2023-07-09T13:49:59;10.57;;;2.92;;
42200;SDS011;27869;51.442;7.540;2023-07-09T13:52:26;13.70;;;3.20;;
42200;SDS011;27869;51.442;7.540;2023-07-09T13:54:53;9.90;;;3.60;;
42200;SDS011;27869;51.442;7.540;2023-07-09T13:57:21;12.68;;;3.90;;
42200;SDS011;27869;51.442;7.540;2023-07-09T13:59:48;11.05;;;3.38;;
42200;SDS011;27869;51.442;7.540;2023-07-09T14:02:20;12.43;;;3.25;;
42200;SDS011;27869;51.442;7.540;2023-07-09T14:04:51;12.68;;;3.80;;
42200;SDS011;27869;51.442;7.540;2023-07-09T14:07:25;10.40;;;3.30;;
42200;SDS011;27869;51.442;7.540;2023-07-09T14:09:54;11.15;;;3.22;;
42200;SDS011;27869;51.442;7.540;2023-07-09T14:12:21;11.20;;;3.40;;
42200;SDS011;27869;51.442;7.540;2023-07-09T14:14:49;10.35;;;3.50;;
42200;SDS011;27869;51.442;7.540;2023-07-09T14:17:17;10.15;;;3.33;;
42200;SDS011;27869;51.442;7.540;2023-07-09T14:19:45;11.13;;;3.42;;
42200;SDS011;27869;51.442;7.540;2023-07-09T14:22:20;13.63;;;3.33;;
42200;SDS011;27869;51.442;7.540;2023-07-09T14:24:50;12.73;;;3.78;;
42200;SDS011;27869;51.442;7.540;2023-07-09T14:29:44;11.07;;;3.38;;
42200;SDS011;27869;51.442;7.540;2023-07-09T14:32:26;9.82;;;3.28;;
42200;SDS011;27869;51.442;7.540;2023-07-09T14:34:58;11.63;;;3.55;;
42200;SDS011;27869;51.442;7.540;2023-07-09T14:37:25;12.40;;;3.55;;
42200;SDS011;27869;51.442;7.540;2023-07-09T14:39:54;10.13;;;2.92;;
42200;SDS011;27869;51.442;7.540;2023-07-09T14:42:20;12.18;;;3.95;;
42200;SDS011;27869;51.442;7.540;2023-07-09T14:44:48;10.10;;;3.45;;
42200;SDS011;27869;51.442;7.540;2023-07-09T14:47:16;11.73;;;3.53;;
42200;SDS011;27869;51.442;7.540;2023-07-09T14:49:43;15.13;;;3.42;;
42200;SDS011;27869;51.442;7.540;2023-07-09T14:52:11;12.77;;;3.45;;
42200;SDS011;27869;51.442;7.540;2023-07-09T14:54:40;11.57;;;3.42;;
42200;SDS011;27869;51.442;7.540;2023-07-09T14:57:11;12.23;;;3.20;;
42200;SDS011;27869;51.442;7.540;2023-07-09T14:59:44;11.98;;;3.35;;
42200;SDS011;27869;51.442;7.540;2023-07-09T15:02:18;11.82;;;3.50;;
42200;SDS011;27869;51.442;7.540;2023-07-09T15:04:56;10.93;;;3.35;;
42200;SDS011;27869;51.442;7.540;2023-07-09T15:07:23;11.20;;;3.75;;
42200;SDS011;27869;51.442;7.540;2023-07-09T15:09:54;11.32;;;3.60;;
42200;SDS011;27869;51.442;7.540;2023-07-09T15:12:25;11.73;;;3.60;;
42200;SDS011;27869;51.442;7.540;2023-07-09T15:14:55;10.60;;;3.10;;
42200;SDS011;27869;51.442;7.540;2023-07-09T15:17:28;16.52;;;3.53;;
42200;SDS011;27869;51.442;7.540;2023-07-09T15:19:55;11.40;;;3.85;;
42200;SDS011;27869;51.442;7.540;2023-07-09T15:22:27;11.40;;;3.70;;
42200;SDS011;27869;51.442;7.540;2023-07-09T15:24:56;12.23;;;3.40;;